sensor_id;sensor_type;location;lat;lon;timestamp;temperature;humidity
5705;DHT22;2877;48.238;11.160;2023-01-09T00:02:04;3.90;99.90
5705;DHT22;2877;48.238;11.160;2023-01-09T00:04:30;3.90;99.90
5705;DHT22;2877;48.238;11.160;2023-01-09T00:06:55;4.00;99.90
5705;DHT22;2877;48.238;11.160;2023-01-09T00:09:22;3.90;99.90
5705;DHT22;2877;48.238;11.160;2023-01-09T00:11:49;4.00;99.90
5705;DHT22;2877;48.238;11.160;2023-01-09T00:14:17;4.00;99.90
5705;DHT22;2877;48.238;11.160;2023-01-09T00:16:43;4.00;99.90
5705;DHT22;2877;48.238;11.160;2023-01-09T00:19:11;4.00;99.90
5705;DHT22;2877;48.238;11.160;2023-01-09T00:21:36;4.00;99.90
5705;DHT22;2877;48.238;11.160;2023-01-09T00:24:02;4.10;99.90
5705;DHT22;2877;48.238;11.160;2023-01-09T00:26:28;4.00;99.90
5705;DHT22;2877;48.238;11.160;2023-01-09T00:28:53;4.00;99.90
5705;DHT22;2877;48.238;11.160;2023-01-09T00:31:19;4.00;99.90
5705;DHT22;2877;48.238;11.160;2023-01-09T00:33:53;4.00;99.90
5705;DHT22;2877;48.238;11.160;2023-01-09T00:36:19;4.10;99.90
5705;DHT22;2877;48.238;11.160;2023-01-09T00:38:45;4.10;99.90
5705;DHT22;2877;48.238;11.160;2023-01-09T00:41:18;4.10;99.90
5705;DHT22;2877;48.238;11.160;2023-01-09T00:43:49;4.10;99.90
5705;DHT22;2877;48.238;11.160;2023-01-09T00:46:17;4.20;99.90
5705;DHT22;2877;48.238;11.160;2023-01-09T00:48:45;4.20;99.90
5705;DHT22;2877;48.238;11.160;2023-01-09T00:51:11;4.20;99.90
5705;DHT22;2877;48.238;11.160;2023-01-09T00:53:38;4.20;99.90
5705;DHT22;2877;48.238;11.160;2023-01-09T00:56:07;4.20;99.90
5705;DHT22;2877;48.238;11.160;2023-01-09T00:58:34;4.30;99.90
5705;DHT22;2877;48.238;11.160;2023-01-09T01:01:00;4.30;99.90
5705;DHT22;2877;48.238;11.160;2023-01-09T01:03:26;4.30;99.90
5705;DHT22;2877;48.238;11.160;2023-01-09T01:05:51;4.30;99.90
5705;DHT22;2877;48.238;11.160;2023-01-09T01:08:36;4.40;99.90
5705;DHT22;2877;48.238;11.160;2023-01-09T01:11:06;4.50;99.90
5705;DHT22;2877;48.238;11.160;2023-01-09T01:13:35;4.50;99.90
5705;DHT22;2877;48.238;11.160;2023-01-09T01:16:03;4.50;99.90
5705;DHT22;2877;48.238;11.160;2023-01-09T01:18:29;4.50;99.90
5705;DHT22;2877;48.238;11.160;2023-01-09T01:20:55;4.50;99.90
5705;DHT22;2877;48.238;11.160;2023-01-09T01:23:20;4.50;99.90
5705;DHT22;2877;48.238;11.160;2023-01-09T01:25:46;4.50;99.90
5705;DHT22;2877;48.238;11.160;2023-01-09T01:28:11;4.40;99.90
5705;DHT22;2877;48.238;11.160;2023-01-09T01:30:41;4.40;99.90
5705;DHT22;2877;48.238;11.160;2023-01-09T01:33:08;4.40;99.90
5705;DHT22;2877;48.238;11.160;2023-01-09T01:35:34;4.40;99.90
5705;DHT22;2877;48.238;11.160;2023-01-09T01:38:00;4.40;99.90
5705;DHT22;2877;48.238;11.160;2023-01-09T01:40:26;4.50;99.90
5705;DHT22;2877;48.238;11.160;2023-01-09T01:42:52;4.40;99.90
5705;DHT22;2877;48.238;11.160;2023-01-09T01:45:24;4.40;99.90
5705;DHT22;2877;48.238;11.160;2023-01-09T01:50:33;4.40;99.90
5705;DHT22;2877;48.238;11.160;2023-01-09T01:55:34;4.50;99.90
5705;DHT22;2877;48.238;11.160;2023-01-09T01:58:03;4.50;99.90
5705;DHT22;2877;48.238;11.160;2023-01-09T02:00:32;4.50;99.90
5705;DHT22;2877;48.238;11.160;2023-01-09T02:03:00;4.50;99.90
5705;DHT22;2877;48.238;11.160;2023-01-09T02:05:26;4.50;99.90
5705;DHT22;2877;48.238;11.160;2023-01-09T02:07:52;4.60;99.90
5705;DHT22;2877;48.238;11.160;2023-01-09T02:10:18;4.60;99.90
5705;DHT22;2877;48.238;11.160;2023-01-09T02:12:47;4.70;99.90
5705;DHT22;2877;48.238;11.160;2023-01-09T02:15:14;4.60;99.90
5705;DHT22;2877;48.238;11.160;2023-01-09T02:17:56;4.70;99.90
5705;DHT22;2877;48.238;11.160;2023-01-09T02:20:45;4.70;99.90
5705;DHT22;2877;48.238;11.160;2023-01-09T02:34:36;4.70;99.90
5705;DHT22;2877;48.238;11.160;2023-01-09T02:37:16;4.60;99.90
5705;DHT22;2877;48.238;11.160;2023-01-09T02:39:55;4.60;99.90
5705;DHT22;2877;48.238;11.160;2023-01-09T02:42:26;4.60;99.90
5705;DHT22;2877;48.238;11.160;2023-01-09T02:44:52;4.70;99.90
5705;DHT22;2877;48.238;11.160;2023-01-09T02:49:46;4.60;99.90
5705;DHT22;2877;48.238;11.160;2023-01-09T03:01:53;4.60;99.90
5705;DHT22;2877;48.238;11.160;2023-01-09T03:04:22;4.60;99.90
5705;DHT22;2877;48.238;11.160;2023-01-09T03:06:57;4.60;99.90
5705;DHT22;2877;48.238;11.160;2023-01-09T03:09:28;4.60;99.90
5705;DHT22;2877;48.238;11.160;2023-01-09T03:12:01;4.60;99.90
5705;DHT22;2877;48.238;11.160;2023-01-09T03:14:30;4.50;99.90
5705;DHT22;2877;48.238;11.160;2023-01-09T03:17:01;4.60;99.90
5705;DHT22;2877;48.238;11.160;2023-01-09T03:19:30;4.60;99.90
5705;DHT22;2877;48.238;11.160;2023-01-09T03:21:57;4.60;99.90
5705;DHT22;2877;48.238;11.160;2023-01-09T03:24:23;4.60;99.90
5705;DHT22;2877;48.238;11.160;2023-01-09T03:26:49;4.50;99.90
5705;DHT22;2877;48.238;11.160;2023-01-09T03:29:15;4.50;99.90
5705;DHT22;2877;48.238;11.160;2023-01-09T03:31:40;4.50;99.90
5705;DHT22;2877;48.238;11.160;2023-01-09T03:34:06;4.50;99.90
5705;DHT22;2877;48.238;11.160;2023-01-09T03:36:31;4.60;99.90
5705;DHT22;2877;48.238;11.160;2023-01-09T03:38:57;4.50;99.90
5705;DHT22;2877;48.238;11.160;2023-01-09T03:41:22;4.50;99.90
5705;DHT22;2877;48.238;11.160;2023-01-09T03:43:48;4.50;99.90
5705;DHT22;2877;48.238;11.160;2023-01-09T03:46:14;4.50;99.90
5705;DHT22;2877;48.238;11.160;2023-01-09T03:48:40;4.50;99.90
5705;DHT22;2877;48.238;11.160;2023-01-09T03:51:06;4.50;99.90
5705;DHT22;2877;48.238;11.160;2023-01-09T03:53:31;4.50;99.90
5705;DHT22;2877;48.238;11.160;2023-01-09T03:55:57;4.40;99.90
5705;DHT22;2877;48.238;11.160;2023-01-09T03:58:24;4.50;99.90
5705;DHT22;2877;48.238;11.160;2023-01-09T04:00:50;4.60;99.90
5705;DHT22;2877;48.238;11.160;2023-01-09T04:03:18;4.70;99.90
5705;DHT22;2877;48.238;11.160;2023-01-09T04:05:45;4.80;99.90
5705;DHT22;2877;48.238;11.160;2023-01-09T04:08:12;4.90;99.90
5705;DHT22;2877;48.238;11.160;2023-01-09T04:10:37;5.20;99.90
5705;DHT22;2877;48.238;11.160;2023-01-09T04:13:03;5.40;99.90
5705;DHT22;2877;48.238;11.160;2023-01-09T04:15:28;5.60;99.90
5705;DHT22;2877;48.238;11.160;2023-01-09T04:17:54;5.80;99.90
5705;DHT22;2877;48.238;11.160;2023-01-09T04:20:20;5.90;99.90
5705;DHT22;2877;48.238;11.160;2023-01-09T04:22:45;6.00;99.90
5705;DHT22;2877;48.238;11.160;2023-01-09T04:25:11;6.10;99.90
5705;DHT22;2877;48.238;11.160;2023-01-09T04:27:36;6.20;99.90
5705;DHT22;2877;48.238;11.160;2023-01-09T04:30:03;6.20;99.90
5705;DHT22;2877;48.238;11.160;2023-01-09T04:32:28;6.20;99.90
5705;DHT22;2877;48.238;11.160;2023-01-09T04:34:55;6.20;99.90
5705;DHT22;2877;48.238;11.160;2023-01-09T04:37:21;6.20;99.90
5705;DHT22;2877;48.238;11.160;2023-01-09T04:39:48;6.30;99.90
5705;DHT22;2877;48.238;11.160;2023-01-09T04:42:14;6.30;99.90
5705;DHT22;2877;48.238;11.160;2023-01-09T04:44:39;6.30;99.90
5705;DHT22;2877;48.238;11.160;2023-01-09T04:47:05;6.20;99.90
5705;DHT22;2877;48.238;11.160;2023-01-09T04:49:31;6.30;99.90
5705;DHT22;2877;48.238;11.160;2023-01-09T04:51:56;6.30;99.90
5705;DHT22;2877;48.238;11.160;2023-01-09T04:54:22;6.20;99.90
5705;DHT22;2877;48.238;11.160;2023-01-09T04:56:48;6.30;99.90
5705;DHT22;2877;48.238;11.160;2023-01-09T04:59:13;6.30;99.90
5705;DHT22;2877;48.238;11.160;2023-01-09T05:01:39;6.30;99.90
5705;DHT22;2877;48.238;11.160;2023-01-09T05:04:05;6.30;99.90
5705;DHT22;2877;48.238;11.160;2023-01-09T05:06:31;6.30;99.90
5705;DHT22;2877;48.238;11.160;2023-01-09T05:08:57;6.30;99.90
5705;DHT22;2877;48.238;11.160;2023-01-09T05:11:23;6.20;99.90
5705;DHT22;2877;48.238;11.160;2023-01-09T05:13:50;6.20;99.90
5705;DHT22;2877;48.238;11.160;2023-01-09T05:16:15;6.20;99.90
5705;DHT22;2877;48.238;11.160;2023-01-09T05:18:41;6.20;99.90
5705;DHT22;2877;48.238;11.160;2023-01-09T05:21:06;6.10;99.90
5705;DHT22;2877;48.238;11.160;2023-01-09T05:23:32;6.10;99.90
5705;DHT22;2877;48.238;11.160;2023-01-09T05:25:57;6.00;99.90
5705;DHT22;2877;48.238;11.160;2023-01-09T05:28:23;6.00;99.90
5705;DHT22;2877;48.238;11.160;2023-01-09T05:30:48;5.90;99.90
5705;DHT22;2877;48.238;11.160;2023-01-09T05:33:14;5.90;99.90
5705;DHT22;2877;48.238;11.160;2023-01-09T05:35:40;5.90;99.90
5705;DHT22;2877;48.238;11.160;2023-01-09T05:38:05;5.80;99.90
5705;DHT22;2877;48.238;11.160;2023-01-09T05:40:31;5.80;99.90
5705;DHT22;2877;48.238;11.160;2023-01-09T05:42:56;5.80;99.90
5705;DHT22;2877;48.238;11.160;2023-01-09T05:45:22;5.70;99.90
5705;DHT22;2877;48.238;11.160;2023-01-09T05:47:47;5.70;99.90
5705;DHT22;2877;48.238;11.160;2023-01-09T05:50:13;5.70;99.90
5705;DHT22;2877;48.238;11.160;2023-01-09T05:52:39;5.70;99.90
5705;DHT22;2877;48.238;11.160;2023-01-09T05:55:06;5.70;99.90
5705;DHT22;2877;48.238;11.160;2023-01-09T05:57:32;5.70;99.90
5705;DHT22;2877;48.238;11.160;2023-01-09T05:59:57;5.70;99.90
5705;DHT22;2877;48.238;11.160;2023-01-09T06:02:23;5.60;99.90
5705;DHT22;2877;48.238;11.160;2023-01-09T06:04:48;5.70;99.90
5705;DHT22;2877;48.238;11.160;2023-01-09T06:07:14;5.70;99.90
5705;DHT22;2877;48.238;11.160;2023-01-09T06:09:40;5.80;99.90
5705;DHT22;2877;48.238;11.160;2023-01-09T06:12:05;5.80;99.90
5705;DHT22;2877;48.238;11.160;2023-01-09T06:14:31;5.80;99.90
5705;DHT22;2877;48.238;11.160;2023-01-09T06:16:56;5.70;99.90
5705;DHT22;2877;48.238;11.160;2023-01-09T06:19:22;5.70;99.90
5705;DHT22;2877;48.238;11.160;2023-01-09T06:21:48;5.70;99.90
5705;DHT22;2877;48.238;11.160;2023-01-09T06:24:13;5.60;99.90
5705;DHT22;2877;48.238;11.160;2023-01-09T06:26:39;5.60;99.90
5705;DHT22;2877;48.238;11.160;2023-01-09T06:29:04;5.60;99.90
5705;DHT22;2877;48.238;11.160;2023-01-09T06:31:30;5.50;99.90
5705;DHT22;2877;48.238;11.160;2023-01-09T06:33:55;5.50;99.90
5705;DHT22;2877;48.238;11.160;2023-01-09T06:36:21;5.50;99.90
5705;DHT22;2877;48.238;11.160;2023-01-09T06:38:47;5.60;99.90
5705;DHT22;2877;48.238;11.160;2023-01-09T06:41:12;5.60;99.90
5705;DHT22;2877;48.238;11.160;2023-01-09T06:43:38;5.50;99.90
5705;DHT22;2877;48.238;11.160;2023-01-09T06:46:03;5.50;99.90
5705;DHT22;2877;48.238;11.160;2023-01-09T06:48:32;5.50;99.90
5705;DHT22;2877;48.238;11.160;2023-01-09T06:50:58;5.50;99.90
5705;DHT22;2877;48.238;11.160;2023-01-09T06:53:24;5.50;99.90
5705;DHT22;2877;48.238;11.160;2023-01-09T06:55:49;5.50;99.90
5705;DHT22;2877;48.238;11.160;2023-01-09T06:58:15;5.50;99.90
5705;DHT22;2877;48.238;11.160;2023-01-09T07:00:41;5.50;99.90
5705;DHT22;2877;48.238;11.160;2023-01-09T07:03:07;5.50;99.90
5705;DHT22;2877;48.238;11.160;2023-01-09T07:05:40;5.50;99.90
5705;DHT22;2877;48.238;11.160;2023-01-09T07:08:06;5.40;99.90
5705;DHT22;2877;48.238;11.160;2023-01-09T07:10:32;5.40;99.90
5705;DHT22;2877;48.238;11.160;2023-01-09T07:12:58;5.20;99.90
5705;DHT22;2877;48.238;11.160;2023-01-09T07:15:23;5.00;99.90
5705;DHT22;2877;48.238;11.160;2023-01-09T07:17:52;4.80;99.90
5705;DHT22;2877;48.238;11.160;2023-01-09T07:20:18;4.70;99.90
5705;DHT22;2877;48.238;11.160;2023-01-09T07:22:45;4.70;99.90
5705;DHT22;2877;48.238;11.160;2023-01-09T07:25:10;4.60;99.90
5705;DHT22;2877;48.238;11.160;2023-01-09T07:27:36;4.60;99.90
5705;DHT22;2877;48.238;11.160;2023-01-09T07:30:02;4.50;99.90
5705;DHT22;2877;48.238;11.160;2023-01-09T07:32:28;4.50;99.90
5705;DHT22;2877;48.238;11.160;2023-01-09T07:34:54;4.40;99.90
5705;DHT22;2877;48.238;11.160;2023-01-09T07:37:19;4.40;99.90
5705;DHT22;2877;48.238;11.160;2023-01-09T07:39:45;4.30;99.90
5705;DHT22;2877;48.238;11.160;2023-01-09T07:42:11;4.20;99.90
5705;DHT22;2877;48.238;11.160;2023-01-09T07:44:36;4.20;99.90
5705;DHT22;2877;48.238;11.160;2023-01-09T07:47:02;4.10;99.90
5705;DHT22;2877;48.238;11.160;2023-01-09T07:49:27;4.00;99.90
5705;DHT22;2877;48.238;11.160;2023-01-09T07:51:54;4.00;99.90
5705;DHT22;2877;48.238;11.160;2023-01-09T07:54:19;3.90;99.90
5705;DHT22;2877;48.238;11.160;2023-01-09T07:56:45;3.90;99.90
5705;DHT22;2877;48.238;11.160;2023-01-09T07:59:10;3.90;99.90
5705;DHT22;2877;48.238;11.160;2023-01-09T08:01:36;3.80;99.90
5705;DHT22;2877;48.238;11.160;2023-01-09T08:04:02;3.80;99.90
5705;DHT22;2877;48.238;11.160;2023-01-09T08:06:28;3.80;99.90
5705;DHT22;2877;48.238;11.160;2023-01-09T08:08:53;3.80;99.90
5705;DHT22;2877;48.238;11.160;2023-01-09T08:11:19;3.70;99.90
5705;DHT22;2877;48.238;11.160;2023-01-09T08:13:44;3.80;99.90
5705;DHT22;2877;48.238;11.160;2023-01-09T08:16:10;3.80;99.90
5705;DHT22;2877;48.238;11.160;2023-01-09T08:18:35;3.90;99.90
5705;DHT22;2877;48.238;11.160;2023-01-09T08:21:01;3.90;99.90
5705;DHT22;2877;48.238;11.160;2023-01-09T08:23:26;3.90;99.90
5705;DHT22;2877;48.238;11.160;2023-01-09T08:25:52;4.00;99.90
5705;DHT22;2877;48.238;11.160;2023-01-09T08:28:18;4.00;99.90
5705;DHT22;2877;48.238;11.160;2023-01-09T08:30:43;4.10;99.90
5705;DHT22;2877;48.238;11.160;2023-01-09T08:33:09;4.10;99.90
5705;DHT22;2877;48.238;11.160;2023-01-09T08:35:34;4.10;99.90
5705;DHT22;2877;48.238;11.160;2023-01-09T08:38:01;4.20;99.90
5705;DHT22;2877;48.238;11.160;2023-01-09T08:40:27;4.20;99.90
5705;DHT22;2877;48.238;11.160;2023-01-09T08:42:52;4.20;99.90
5705;DHT22;2877;48.238;11.160;2023-01-09T08:45:37;4.20;99.90
5705;DHT22;2877;48.238;11.160;2023-01-09T08:48:21;4.20;99.90
5705;DHT22;2877;48.238;11.160;2023-01-09T08:50:46;4.20;99.90
5705;DHT22;2877;48.238;11.160;2023-01-09T08:53:12;4.20;99.90
5705;DHT22;2877;48.238;11.160;2023-01-09T08:55:38;4.20;99.90
5705;DHT22;2877;48.238;11.160;2023-01-09T08:58:03;4.20;99.90
5705;DHT22;2877;48.238;11.160;2023-01-09T09:00:29;4.30;99.90
5705;DHT22;2877;48.238;11.160;2023-01-09T09:02:56;4.30;99.90
5705;DHT22;2877;48.238;11.160;2023-01-09T09:05:24;4.30;99.90
5705;DHT22;2877;48.238;11.160;2023-01-09T09:07:51;4.20;99.90
5705;DHT22;2877;48.238;11.160;2023-01-09T09:10:22;4.30;99.90
5705;DHT22;2877;48.238;11.160;2023-01-09T09:12:49;4.30;99.90
5705;DHT22;2877;48.238;11.160;2023-01-09T09:15:15;4.30;99.90
5705;DHT22;2877;48.238;11.160;2023-01-09T09:17:44;4.30;99.90
5705;DHT22;2877;48.238;11.160;2023-01-09T09:20:13;4.30;99.90
5705;DHT22;2877;48.238;11.160;2023-01-09T09:22:38;4.40;99.90
5705;DHT22;2877;48.238;11.160;2023-01-09T09:25:04;4.40;99.90
5705;DHT22;2877;48.238;11.160;2023-01-09T09:27:31;4.40;99.90
5705;DHT22;2877;48.238;11.160;2023-01-09T09:29:56;4.40;99.90
5705;DHT22;2877;48.238;11.160;2023-01-09T09:32:22;4.50;99.90
5705;DHT22;2877;48.238;11.160;2023-01-09T09:34:47;4.50;99.90
5705;DHT22;2877;48.238;11.160;2023-01-09T09:37:13;4.60;99.90
5705;DHT22;2877;48.238;11.160;2023-01-09T09:39:38;4.60;99.90
5705;DHT22;2877;48.238;11.160;2023-01-09T09:48:34;4.80;99.90
5705;DHT22;2877;48.238;11.160;2023-01-09T09:56:42;4.90;99.90
5705;DHT22;2877;48.238;11.160;2023-01-09T09:59:17;5.00;99.90
5705;DHT22;2877;48.238;11.160;2023-01-09T10:02:03;5.00;99.90
5705;DHT22;2877;48.238;11.160;2023-01-09T10:04:31;5.10;99.90
5705;DHT22;2877;48.238;11.160;2023-01-09T10:07:03;5.20;99.90
5705;DHT22;2877;48.238;11.160;2023-01-09T10:12:34;5.30;99.90
5705;DHT22;2877;48.238;11.160;2023-01-09T10:15:13;5.30;99.90
5705;DHT22;2877;48.238;11.160;2023-01-09T10:17:58;5.30;99.90
5705;DHT22;2877;48.238;11.160;2023-01-09T10:26:21;5.50;99.90
5705;DHT22;2877;48.238;11.160;2023-01-09T10:28:58;5.50;99.90
5705;DHT22;2877;48.238;11.160;2023-01-09T10:37:04;5.60;99.90
5705;DHT22;2877;48.238;11.160;2023-01-09T10:42:01;5.60;99.90
5705;DHT22;2877;48.238;11.160;2023-01-09T10:44:35;5.60;99.90
5705;DHT22;2877;48.238;11.160;2023-01-09T10:47:21;5.60;99.90
5705;DHT22;2877;48.238;11.160;2023-01-09T10:49:48;5.70;99.90
5705;DHT22;2877;48.238;11.160;2023-01-09T10:52:17;5.70;99.90
5705;DHT22;2877;48.238;11.160;2023-01-09T10:54:53;5.80;99.90
5705;DHT22;2877;48.238;11.160;2023-01-09T10:57:40;5.80;99.90
5705;DHT22;2877;48.238;11.160;2023-01-09T11:00:12;5.80;99.90
5705;DHT22;2877;48.238;11.160;2023-01-09T11:02:38;5.90;99.90
5705;DHT22;2877;48.238;11.160;2023-01-09T11:05:04;6.00;99.90
5705;DHT22;2877;48.238;11.160;2023-01-09T11:07:33;6.00;99.90
5705;DHT22;2877;48.238;11.160;2023-01-09T11:10:04;6.00;99.90
5705;DHT22;2877;48.238;11.160;2023-01-09T11:12:31;6.10;99.90
5705;DHT22;2877;48.238;11.160;2023-01-09T11:17:50;6.10;99.90
5705;DHT22;2877;48.238;11.160;2023-01-09T11:20:27;6.20;99.90
5705;DHT22;2877;48.238;11.160;2023-01-09T11:22:56;6.20;99.90
5705;DHT22;2877;48.238;11.160;2023-01-09T11:25:25;6.20;99.90
5705;DHT22;2877;48.238;11.160;2023-01-09T11:28:05;6.20;99.90
5705;DHT22;2877;48.238;11.160;2023-01-09T11:30:33;6.30;99.90
5705;DHT22;2877;48.238;11.160;2023-01-09T11:33:13;6.30;99.90
5705;DHT22;2877;48.238;11.160;2023-01-09T11:36:11;6.40;99.90
5705;DHT22;2877;48.238;11.160;2023-01-09T11:39:04;6.40;99.90
5705;DHT22;2877;48.238;11.160;2023-01-09T11:41:32;6.40;99.90
5705;DHT22;2877;48.238;11.160;2023-01-09T11:44:00;6.40;99.90
5705;DHT22;2877;48.238;11.160;2023-01-09T11:46:38;6.40;99.90
5705;DHT22;2877;48.238;11.160;2023-01-09T11:51:38;6.50;99.90
5705;DHT22;2877;48.238;11.160;2023-01-09T11:54:21;6.50;99.90
5705;DHT22;2877;48.238;11.160;2023-01-09T11:56:49;6.50;99.90
5705;DHT22;2877;48.238;11.160;2023-01-09T11:59:18;6.60;99.90
5705;DHT22;2877;48.238;11.160;2023-01-09T12:04:49;6.60;99.90
5705;DHT22;2877;48.238;11.160;2023-01-09T12:12:54;6.60;99.90
5705;DHT22;2877;48.238;11.160;2023-01-09T12:23:46;6.60;99.90
5705;DHT22;2877;48.238;11.160;2023-01-09T12:26:20;6.50;99.90
5705;DHT22;2877;48.238;11.160;2023-01-09T12:37:38;6.50;99.90
5705;DHT22;2877;48.238;11.160;2023-01-09T12:45:48;6.50;99.90
5705;DHT22;2877;48.238;11.160;2023-01-09T12:53:41;6.60;99.90
5705;DHT22;2877;48.238;11.160;2023-01-09T12:56:36;6.60;99.90
5705;DHT22;2877;48.238;11.160;2023-01-09T12:59:33;6.70;99.90
5705;DHT22;2877;48.238;11.160;2023-01-09T13:05:02;6.70;99.90
5705;DHT22;2877;48.238;11.160;2023-01-09T13:07:39;6.80;99.90
5705;DHT22;2877;48.238;11.160;2023-01-09T13:10:15;6.80;99.90
5705;DHT22;2877;48.238;11.160;2023-01-09T13:12:43;6.80;99.90
5705;DHT22;2877;48.238;11.160;2023-01-09T13:15:28;6.80;99.90
5705;DHT22;2877;48.238;11.160;2023-01-09T13:18:00;6.70;99.90
5705;DHT22;2877;48.238;11.160;2023-01-09T13:20:37;6.70;99.90
5705;DHT22;2877;48.238;11.160;2023-01-09T13:23:04;6.70;99.90
5705;DHT22;2877;48.238;11.160;2023-01-09T13:28:17;6.70;99.90
5705;DHT22;2877;48.238;11.160;2023-01-09T13:31:07;6.70;99.90
5705;DHT22;2877;48.238;11.160;2023-01-09T13:33:43;6.60;99.90
5705;DHT22;2877;48.238;11.160;2023-01-09T13:36:24;6.60;99.90
5705;DHT22;2877;48.238;11.160;2023-01-09T13:38:50;6.70;99.90
5705;DHT22;2877;48.238;11.160;2023-01-09T13:41:17;6.70;99.90
5705;DHT22;2877;48.238;11.160;2023-01-09T13:44:04;6.70;99.90
5705;DHT22;2877;48.238;11.160;2023-01-09T13:46:40;6.60;99.90
5705;DHT22;2877;48.238;11.160;2023-01-09T13:49:57;6.70;99.90
5705;DHT22;2877;48.238;11.160;2023-01-09T13:57:37;6.70;99.90
5705;DHT22;2877;48.238;11.160;2023-01-09T14:05:10;6.70;99.90
5705;DHT22;2877;48.238;11.160;2023-01-09T14:07:44;6.70;99.90
5705;DHT22;2877;48.238;11.160;2023-01-09T14:10:36;6.80;99.90
5705;DHT22;2877;48.238;11.160;2023-01-09T14:13:07;6.80;99.90
5705;DHT22;2877;48.238;11.160;2023-01-09T14:15:34;6.80;99.90
5705;DHT22;2877;48.238;11.160;2023-01-09T14:18:27;6.70;99.90
5705;DHT22;2877;48.238;11.160;2023-01-09T14:20:54;6.70;99.90
5705;DHT22;2877;48.238;11.160;2023-01-09T14:23:22;6.60;99.90
5705;DHT22;2877;48.238;11.160;2023-01-09T14:25:50;6.50;99.90
5705;DHT22;2877;48.238;11.160;2023-01-09T14:38:45;6.30;99.90
5705;DHT22;2877;48.238;11.160;2023-01-09T14:43:59;6.20;99.90
5705;DHT22;2877;48.238;11.160;2023-01-09T14:46:29;6.20;99.90
5705;DHT22;2877;48.238;11.160;2023-01-09T14:49:04;6.00;99.90
5705;DHT22;2877;48.238;11.160;2023-01-09T14:51:34;5.90;99.90
5705;DHT22;2877;48.238;11.160;2023-01-09T14:54:07;5.80;99.90
5705;DHT22;2877;48.238;11.160;2023-01-09T14:56:45;5.60;99.90
5705;DHT22;2877;48.238;11.160;2023-01-09T14:59:12;5.60;99.90
5705;DHT22;2877;48.238;11.160;2023-01-09T15:01:41;5.60;99.90
5705;DHT22;2877;48.238;11.160;2023-01-09T15:04:32;5.60;99.90
5705;DHT22;2877;48.238;11.160;2023-01-09T15:07:02;5.60;99.90
5705;DHT22;2877;48.238;11.160;2023-01-09T15:09:42;5.60;99.90
5705;DHT22;2877;48.238;11.160;2023-01-09T15:12:11;5.60;99.90
5705;DHT22;2877;48.238;11.160;2023-01-09T15:14:42;5.70;99.90
5705;DHT22;2877;48.238;11.160;2023-01-09T15:17:26;5.70;99.90
5705;DHT22;2877;48.238;11.160;2023-01-09T15:19:54;5.80;99.90
5705;DHT22;2877;48.238;11.160;2023-01-09T15:22:32;5.80;99.90
5705;DHT22;2877;48.238;11.160;2023-01-09T15:24:58;5.80;99.90
5705;DHT22;2877;48.238;11.160;2023-01-09T15:27:46;5.80;99.90
5705;DHT22;2877;48.238;11.160;2023-01-09T15:30:24;5.80;99.90
5705;DHT22;2877;48.238;11.160;2023-01-09T15:32:53;5.80;99.90
5705;DHT22;2877;48.238;11.160;2023-01-09T15:35:20;5.80;99.90
5705;DHT22;2877;48.238;11.160;2023-01-09T15:37:45;5.80;99.90
5705;DHT22;2877;48.238;11.160;2023-01-09T15:40:18;5.80;99.90
5705;DHT22;2877;48.238;11.160;2023-01-09T15:42:47;5.70;99.90
5705;DHT22;2877;48.238;11.160;2023-01-09T15:45:29;5.70;99.90
5705;DHT22;2877;48.238;11.160;2023-01-09T15:48:22;5.60;99.90
5705;DHT22;2877;48.238;11.160;2023-01-09T15:50:52;5.60;99.90
5705;DHT22;2877;48.238;11.160;2023-01-09T15:53:21;5.60;99.90
5705;DHT22;2877;48.238;11.160;2023-01-09T15:56:39;5.60;99.90
5705;DHT22;2877;48.238;11.160;2023-01-09T15:59:00;5.60;99.90
5705;DHT22;2877;48.238;11.160;2023-01-09T16:01:37;5.60;99.90
5705;DHT22;2877;48.238;11.160;2023-01-09T16:04:08;5.60;99.90
5705;DHT22;2877;48.238;11.160;2023-01-09T16:06:37;5.60;99.90
5705;DHT22;2877;48.238;11.160;2023-01-09T16:09:03;5.60;99.90
5705;DHT22;2877;48.238;11.160;2023-01-09T16:11:37;5.50;99.90
5705;DHT22;2877;48.238;11.160;2023-01-09T16:14:13;5.50;99.90
5705;DHT22;2877;48.238;11.160;2023-01-09T16:16:41;5.40;99.90
5705;DHT22;2877;48.238;11.160;2023-01-09T16:19:28;5.30;99.90
5705;DHT22;2877;48.238;11.160;2023-01-09T16:22:02;5.30;99.90
5705;DHT22;2877;48.238;11.160;2023-01-09T16:24:38;5.20;99.90
5705;DHT22;2877;48.238;11.160;2023-01-09T16:29:53;5.20;99.90
5705;DHT22;2877;48.238;11.160;2023-01-09T16:34:56;5.20;99.90
5705;DHT22;2877;48.238;11.160;2023-01-09T16:37:23;5.20;99.90
5705;DHT22;2877;48.238;11.160;2023-01-09T16:42:38;5.20;99.90
5705;DHT22;2877;48.238;11.160;2023-01-09T16:45:24;5.20;99.90
5705;DHT22;2877;48.238;11.160;2023-01-09T16:47:50;5.20;99.90
5705;DHT22;2877;48.238;11.160;2023-01-09T16:50:16;5.20;99.90
5705;DHT22;2877;48.238;11.160;2023-01-09T16:52:41;5.20;99.90
5705;DHT22;2877;48.238;11.160;2023-01-09T16:55:08;5.10;99.90
5705;DHT22;2877;48.238;11.160;2023-01-09T16:57:35;5.10;99.90
5705;DHT22;2877;48.238;11.160;2023-01-09T17:00:01;5.10;99.90
5705;DHT22;2877;48.238;11.160;2023-01-09T17:02:27;5.00;99.90
5705;DHT22;2877;48.238;11.160;2023-01-09T17:04:53;4.90;99.90
5705;DHT22;2877;48.238;11.160;2023-01-09T17:07:23;4.90;99.90
5705;DHT22;2877;48.238;11.160;2023-01-09T17:09:53;4.90;99.90
5705;DHT22;2877;48.238;11.160;2023-01-09T17:12:21;5.00;99.90
5705;DHT22;2877;48.238;11.160;2023-01-09T17:14:48;4.90;99.90
5705;DHT22;2877;48.238;11.160;2023-01-09T17:17:15;4.90;99.90
5705;DHT22;2877;48.238;11.160;2023-01-09T17:19:41;4.80;99.90
5705;DHT22;2877;48.238;11.160;2023-01-09T17:22:07;4.80;99.90
5705;DHT22;2877;48.238;11.160;2023-01-09T17:24:34;4.70;99.90
5705;DHT22;2877;48.238;11.160;2023-01-09T17:27:29;4.60;99.90
5705;DHT22;2877;48.238;11.160;2023-01-09T17:30:14;4.50;99.90
5705;DHT22;2877;48.238;11.160;2023-01-09T17:32:40;4.40;99.90
5705;DHT22;2877;48.238;11.160;2023-01-09T17:35:05;4.30;99.90
5705;DHT22;2877;48.238;11.160;2023-01-09T17:37:32;4.20;99.90
5705;DHT22;2877;48.238;11.160;2023-01-09T17:39:57;4.20;99.90
5705;DHT22;2877;48.238;11.160;2023-01-09T17:42:28;4.10;99.90
5705;DHT22;2877;48.238;11.160;2023-01-09T17:44:53;4.10;99.90
5705;DHT22;2877;48.238;11.160;2023-01-09T17:47:21;4.10;99.90
5705;DHT22;2877;48.238;11.160;2023-01-09T17:49:46;4.00;99.90
5705;DHT22;2877;48.238;11.160;2023-01-09T17:52:12;4.10;99.90
5705;DHT22;2877;48.238;11.160;2023-01-09T17:54:38;4.10;99.90
5705;DHT22;2877;48.238;11.160;2023-01-09T17:57:04;4.10;99.90
5705;DHT22;2877;48.238;11.160;2023-01-09T17:59:30;4.20;99.90
5705;DHT22;2877;48.238;11.160;2023-01-09T18:01:56;4.20;99.90
5705;DHT22;2877;48.238;11.160;2023-01-09T18:04:21;4.20;99.90
5705;DHT22;2877;48.238;11.160;2023-01-09T18:06:47;4.20;99.90
5705;DHT22;2877;48.238;11.160;2023-01-09T18:09:15;4.20;99.90
5705;DHT22;2877;48.238;11.160;2023-01-09T18:11:45;4.20;99.90
5705;DHT22;2877;48.238;11.160;2023-01-09T18:14:12;4.10;99.90
5705;DHT22;2877;48.238;11.160;2023-01-09T18:16:38;4.10;99.90
5705;DHT22;2877;48.238;11.160;2023-01-09T18:19:03;4.00;99.90
5705;DHT22;2877;48.238;11.160;2023-01-09T18:21:29;4.00;99.90
5705;DHT22;2877;48.238;11.160;2023-01-09T18:23:56;3.90;99.90
5705;DHT22;2877;48.238;11.160;2023-01-09T18:26:23;3.90;99.90
5705;DHT22;2877;48.238;11.160;2023-01-09T18:28:55;3.80;99.90
5705;DHT22;2877;48.238;11.160;2023-01-09T18:31:21;3.80;99.90
5705;DHT22;2877;48.238;11.160;2023-01-09T18:33:52;3.80;99.90